Time;durP1;ratioP1;P1;durP2;ratioP2;P2;SDS_P1;SDS_P2;PMS_P1;PMS_P2;Temp;Humidity;BMP_temperature;BMP_pressure;BME280_temperature;BME280_humidity;BME280_pressure;Samples;Min_cycle;Max_cycle;Signal;HPM_P1;HPM_P2
2024/01/31 00:08:33;;;;;;;0.73;0.40;;;;;;;17.36;54.85;102911.41;21023000;28;20081;-67
2024/01/31 00:18:34;;;;;;;1.00;0.50;;;;;;;17.36;54.65;102934.78;21039426;28;20055;-66
2024/01/31 00:28:36;;;;;;;0.57;0.28;;;;;;;17.37;54.35;102944.59;21022296;28;20088;-66
2024/01/31 00:38:38;;;;;;;0.75;0.38;;;;;;;17.39;54.25;102964.22;21036654;28;20052;-66
2024/01/31 00:48:40;;;;;;;0.88;0.30;;;;;;;17.36;54.11;102977.84;20986243;28;20044;-67
2024/01/31 00:58:42;;;;;;;0.73;0.30;;;;;;;17.34;54.15;102977.06;20981522;28;20485;-67
2024/01/31 01:08:44;;;;;;;0.80;0.55;;;;;;;17.34;53.77;102982.44;21017536;28;20048;-67
2024/01/31 01:18:45;;;;;;;0.82;0.38;;;;;;;17.28;53.91;102982.78;21064857;28;20074;-67
2024/01/31 01:28:47;;;;;;;0.98;0.40;;;;;;;17.24;53.84;102974.88;21047692;28;20462;-67
2024/01/31 01:38:49;;;;;;;0.70;0.40;;;;;;;17.25;53.66;102959.56;21046890;28;20457;-67
2024/01/31 01:48:50;;;;;;;1.30;0.40;;;;;;;17.23;53.60;102983.00;21039199;28;20067;-67
2024/01/31 01:58:53;;;;;;;1.02;0.70;;;;;;;17.23;53.48;102981.22;21033208;28;20162;-67
2024/01/31 02:08:56;;;;;;;0.98;0.30;;;;;;;17.20;53.50;102991.25;21047626;28;20903;-67
2024/01/31 02:18:58;;;;;;;0.80;0.40;;;;;;;17.13;53.39;102990.69;21031691;28;20051;-66
2024/01/31 02:29:00;;;;;;;1.17;0.30;;;;;;;17.17;53.27;102965.34;21030975;28;20043;-66
2024/01/31 02:39:03;;;;;;;0.60;0.60;;;;;;;17.19;53.15;102965.28;21029734;28;20526;-67
2024/01/31 02:49:07;;;;;;;0.90;0.50;;;;;;;17.17;53.15;102942.97;20958006;28;20041;-67
2024/01/31 02:59:09;;;;;;;0.37;0.30;;;;;;;17.15;53.11;102961.88;20945085;28;20048;-67
2024/01/31 03:09:11;;;;;;;1.55;0.20;;;;;;;17.15;52.84;102948.41;21034469;28;20052;-66
2024/01/31 03:19:13;;;;;;;0.93;0.30;;;;;;;17.13;52.79;102944.09;21026607;28;20048;-67
2024/01/31 03:29:15;;;;;;;0.50;0.30;;;;;;;17.11;52.78;102949.53;21043871;28;20058;-66
2024/01/31 03:39:18;;;;;;;1.58;0.60;;;;;;;17.08;52.57;102955.09;21024512;28;20055;-67
2024/01/31 03:49:20;;;;;;;0.77;0.30;;;;;;;16.96;52.75;102935.91;21024236;28;20044;-67
2024/01/31 03:59:23;;;;;;;0.70;0.30;;;;;;;16.91;52.82;102935.28;21040711;28;20062;-67
2024/01/31 04:09:25;;;;;;;0.40;0.30;;;;;;;16.87;52.72;102928.34;21020471;28;20440;-67
2024/01/31 04:19:27;;;;;;;0.77;0.32;;;;;;;16.83;52.68;102910.63;21040000;28;20073;-66
2024/01/31 04:29:29;;;;;;;0.60;0.30;;;;;;;16.81;52.76;102917.91;21022698;28;20051;-67
2024/01/31 04:39:30;;;;;;;0.52;0.20;;;;;;;16.80;52.57;102922.38;21021081;28;20044;-67
2024/01/31 04:49:32;;;;;;;0.35;0.20;;;;;;;16.80;52.34;102919.69;21037285;28;20101;-67
2024/01/31 04:59:42;;;;;;;1.20;0.40;;;;;;;16.82;52.33;102906.19;21021376;28;20591;-68
2024/01/31 05:09:43;;;;;;;0.57;0.20;;;;;;;16.79;52.38;102890.19;21036873;28;20040;-66
2024/01/31 05:19:45;;;;;;;1.25;0.35;;;;;;;16.75;52.11;102900.25;21020896;28;20048;-66
2024/01/31 05:29:47;;;;;;;0.82;0.30;;;;;;;16.76;51.83;102882.28;21052156;28;20048;-66
2024/01/31 05:39:49;;;;;;;0.65;0.28;;;;;;;16.71;51.61;102892.41;21032837;28;20094;-66
2024/01/31 05:49:50;;;;;;;0.90;0.28;;;;;;;16.67;51.54;102891.72;21026054;28;20063;-66
2024/01/31 05:59:56;;;;;;;0.50;0.35;;;;;;;16.61;51.40;102892.88;21022991;28;20098;-66
2024/01/31 06:09:58;;;;;;;0.82;0.30;;;;;;;16.61;51.53;102892.88;21000953;28;20512;-65
2024/01/31 06:19:59;;;;;;;0.30;0.20;;;;;;;16.57;51.62;102874.28;20997568;27;20056;-66
2024/01/31 06:30:03;;;;;;;0.73;0.40;;;;;;;16.63;51.73;102885.59;21022110;28;20777;-65
2024/01/31 06:40:08;;;;;;;0.20;0.20;;;;;;;16.66;51.72;102914.19;21008507;28;20905;-66
2024/01/31 06:50:11;;;;;;;0.60;0.30;;;;;;;16.65;51.99;102926.72;20970395;28;20045;-66
2024/01/31 07:00:15;;;;;;;1.67;0.20;;;;;;;16.81;51.75;102977.06;20997978;28;20052;-66
2024/01/31 07:10:17;;;;;;;0.73;0.30;;;;;;;16.99;51.19;102994.09;21034644;28;21829;-66
2024/01/31 07:20:19;;;;;;;1.67;0.43;;;;;;;17.12;50.56;103015.88;21026213;28;20052;-67
2024/01/31 07:30:21;;;;;;;0.82;0.60;;;;;;;17.19;50.37;103017.28;20997888;28;20085;-67
2024/01/31 07:40:22;;;;;;;0.80;0.30;;;;;;;17.30;50.19;103029.34;20997214;28;20055;-66
2024/01/31 07:50:24;;;;;;;1.63;0.40;;;;;;;17.35;50.27;103019.19;21039004;28;20044;-65
2024/01/31 08:00:27;;;;;;;1.02;0.43;;;;;;;17.31;50.17;102983.47;21004243;28;20106;-66
2024/01/31 08:10:28;;;;;;;1.17;0.40;;;;;;;17.46;49.93;102997.94;21013658;28;20138;-66
2024/01/31 08:20:30;;;;;;;2.17;0.32;;;;;;;17.58;49.95;102980.25;20974134;28;20055;-66
2024/01/31 08:30:32;;;;;;;1.27;0.47;;;;;;;17.70;50.19;102978.72;20966376;28;20049;-66
2024/01/31 08:40:34;;;;;;;1.17;0.40;;;;;;;17.78;50.28;102970.19;20968481;28;20059;-67
2024/01/31 08:50:36;;;;;;;1.00;0.35;;;;;;;17.91;50.46;102970.41;20943978;28;22059;-66
2024/01/31 09:00:38;;;;;;;2.05;0.85;;;;;;;18.14;49.88;102946.72;20974651;28;20067;-66
2024/01/31 09:10:40;;;;;;;3.45;1.15;;;;;;;18.27;49.97;102945.03;20983549;28;20566;-67
2024/01/31 09:20:41;;;;;;;3.78;0.90;;;;;;;18.39;49.75;102938.91;20967336;28;20953;-69
2024/01/31 09:30:44;;;;;;;1.92;0.95;;;;;;;18.51;49.58;102926.53;20974983;28;20071;-67
2024/01/31 09:40:46;;;;;;;2.72;1.20;;;;;;;18.65;49.53;102922.16;21000673;27;20529;-67
2024/01/31 09:50:48;;;;;;;2.15;0.77;;;;;;;18.74;49.27;102920.75;20994672;28;20052;-66
2024/01/31 10:00:51;;;;;;;3.58;1.40;;;;;;;18.87;51.56;102915.47;20967549;28;20082;-65
2024/01/31 10:10:57;;;;;;;4.07;1.38;;;;;;;18.97;51.22;102922.91;21001890;28;20059;-66
2024/01/31 10:20:59;;;;;;;4.53;1.60;;;;;;;19.02;50.61;102908.31;20997419;28;20048;-64
2024/01/31 10:31:01;;;;;;;2.70;1.30;;;;;;;19.15;50.37;102925.47;20994865;28;20090;-67
2024/01/31 10:41:06;;;;;;;5.40;1.23;;;;;;;19.21;49.73;102898.06;20979006;28;20127;-65
2024/01/31 10:51:09;;;;;;;3.43;1.07;;;;;;;19.23;49.23;102882.66;20978618;28;20048;-65
2024/01/31 11:01:14;;;;;;;1.52;1.00;;;;;;;19.27;48.83;102865.28;20960182;28;20048;-65
2024/01/31 11:11:20;;;;;;;2.30;0.77;;;;;;;19.34;48.34;102844.16;20955725;28;20059;-65
2024/01/31 11:21:22;;;;;;;3.85;0.90;;;;;;;19.33;48.16;102809.13;20961119;28;20062;-65
2024/01/31 11:31:24;;;;;;;2.13;0.90;;;;;;;19.27;47.78;102773.47;20956575;28;20071;-65
2024/01/31 11:41:26;;;;;;;2.70;0.88;;;;;;;19.25;47.78;102756.50;20946146;28;20051;-65
2024/01/31 11:51:28;;;;;;;2.00;0.88;;;;;;;19.31;47.87;102735.47;20949390;28;20066;-65
2024/01/31 12:01:33;;;;;;;1.08;0.63;;;;;;;19.34;48.05;102702.84;20954233;28;20066;-67
2024/01/31 12:11:34;;;;;;;5.75;0.80;;;;;;;19.43;48.52;102677.91;20936031;28;20177;-66
2024/01/31 12:21:41;;;;;;;3.15;0.80;;;;;;;19.52;50.34;102666.50;20988142;28;20056;-66
2024/01/31 12:31:45;;;;;;;0.90;0.63;;;;;;;19.53;54.52;102661.97;20982166;28;20048;-67
2024/01/31 12:41:47;;;;;;;1.37;0.70;;;;;;;19.52;54.71;102649.44;21000482;28;20052;-66
2024/01/31 12:51:51;;;;;;;2.70;0.87;;;;;;;19.55;53.74;102647.41;20996415;28;20048;-66
2024/01/31 13:01:53;;;;;;;0.80;0.65;;;;;;;19.59;52.49;102610.22;20996123;28;20055;-67
2024/01/31 13:11:55;;;;;;;2.28;0.88;;;;;;;19.60;52.13;102598.44;20991613;28;20040;-67
2024/01/31 13:21:57;;;;;;;2.45;0.90;;;;;;;19.63;53.25;102575.75;20954025;28;20059;-68
2024/01/31 13:31:59;;;;;;;3.78;1.10;;;;;;;19.61;53.81;102553.38;20961829;28;20158;-68
2024/01/31 13:42:02;;;;;;;3.75;2.00;;;;;;;19.56;60.08;102527.56;20962437;28;20051;-66
2024/01/31 13:52:04;;;;;;;6.40;3.90;;;;;;;19.71;72.39;102509.41;21005387;28;20051;-68
2024/01/31 14:02:06;;;;;;;4.68;2.58;;;;;;;19.71;73.99;102508.53;20977009;28;20047;-67
2024/01/31 14:12:08;;;;;;;4.75;2.13;;;;;;;19.63;71.12;102483.91;20987909;28;20059;-69
2024/01/31 14:22:12;;;;;;;4.00;2.15;;;;;;;19.52;64.85;102473.84;21022380;28;20428;-67
2024/01/31 14:32:27;;;;;;;2.08;1.65;;;;;;;19.43;60.91;102453.75;20994685;27;20056;-67
2024/01/31 14:42:29;;;;;;;4.22;1.80;;;;;;;19.33;59.67;102449.97;21000279;28;20052;-67
2024/01/31 14:52:31;;;;;;;4.70;1.77;;;;;;;19.25;59.27;102459.47;20992561;28;20455;-66
2024/01/31 15:02:33;;;;;;;1.98;1.30;;;;;;;19.24;58.85;102417.25;20969475;28;20055;-71
2024/01/31 15:12:35;;;;;;;2.83;1.50;;;;;;;19.23;58.93;102401.19;20956792;28;20528;-68
2024/01/31 15:22:37;;;;;;;1.95;1.30;;;;;;;19.35;58.20;102412.94;20948609;28;20062;-67
2024/01/31 15:32:39;;;;;;;2.53;1.50;;;;;;;19.35;58.14;102410.22;20934829;28;20740;-72
2024/01/31 15:42:41;;;;;;;3.30;1.52;;;;;;;19.35;58.29;102383.22;20957039;28;20095;-69
2024/01/31 15:52:43;;;;;;;1.77;1.40;;;;;;;19.32;58.48;102343.81;20949833;28;20044;-69
2024/01/31 16:02:48;;;;;;;3.88;1.50;;;;;;;19.32;59.03;102305.13;20948136;27;20128;-68
2024/01/31 16:12:50;;;;;;;2.75;1.50;;;;;;;19.34;58.84;102292.38;20940129;28;20072;-67
2024/01/31 16:22:52;;;;;;;6.75;3.15;;;;;;;19.32;59.30;102273.63;20930491;28;20620;-64
2024/01/31 16:32:53;;;;;;;6.47;2.60;;;;;;;19.32;65.61;102229.53;20919198;28;20052;-64
2024/01/31 16:42:55;;;;;;;5.38;2.33;;;;;;;19.51;66.25;102235.31;20938743;28;20083;-64
2024/01/31 16:52:57;;;;;;;4.85;2.20;;;;;;;19.55;65.04;102228.69;20944879;28;20424;-64
2024/01/31 17:02:59;;;;;;;4.18;2.13;;;;;;;19.47;63.07;102214.91;20944605;28;20171;-64
2024/01/31 17:13:00;;;;;;;3.88;1.58;;;;;;;19.39;62.49;102182.19;20935149;28;20082;-64
2024/01/31 17:23:03;;;;;;;2.88;1.55;;;;;;;19.28;61.51;102175.75;20949817;28;20045;-64
2024/01/31 17:33:05;;;;;;;3.22;1.70;;;;;;;19.30;60.86;102188.28;20963432;27;20052;-65
2024/01/31 17:43:07;;;;;;;2.70;1.35;;;;;;;19.24;60.38;102171.56;20953742;28;20401;-66
2024/01/31 17:53:09;;;;;;;2.72;1.40;;;;;;;19.21;60.86;102166.41;20934805;28;20408;-66
2024/01/31 18:03:11;;;;;;;2.95;1.20;;;;;;;19.26;60.77;102133.66;20953868;28;21053;-68
2024/01/31 18:13:13;;;;;;;2.08;1.08;;;;;;;19.26;60.58;102096.72;20954844;28;20626;-64
2024/01/31 18:23:15;;;;;;;2.72;0.90;;;;;;;19.28;59.70;102113.66;20952485;28;20056;-65
2024/01/31 18:33:16;;;;;;;2.45;1.45;;;;;;;19.23;59.00;102118.56;20955507;27;20523;-65
2024/01/31 18:43:22;;;;;;;3.08;1.33;;;;;;;19.23;58.15;102115.00;20935499;28;20265;-66
2024/01/31 18:53:24;;;;;;;1.75;1.00;;;;;;;19.23;57.81;102074.50;20948159;28;21222;-63
2024/01/31 19:03:26;;;;;;;1.23;0.75;;;;;;;19.37;57.56;102049.13;20960335;27;20382;-66
2024/01/31 19:13:28;;;;;;;4.57;1.67;;;;;;;19.38;56.88;102024.72;20955971;27;20408;-67
2024/01/31 19:23:30;;;;;;;4.13;1.17;;;;;;;19.14;56.40;102016.69;20950551;28;20104;-64
2024/01/31 19:33:32;;;;;;;1.42;0.82;;;;;;;18.97;56.55;102010.69;20995644;28;20083;-66
2024/01/31 19:43:34;;;;;;;2.13;0.95;;;;;;;18.72;55.69;102005.41;20993029;28;20070;-65
2024/01/31 19:53:49;;;;;;;1.95;0.98;;;;;;;18.52;55.55;101978.09;20993218;28;20044;-65
2024/01/31 20:03:51;;;;;;;;;;;;;;;18.36;55.34;101952.28;21008751;28;20054;-65
2024/01/31 20:13:54;;;;;;;1.35;0.90;;;;;;;18.16;55.02;101928.63;21002393;28;19932;-65
2024/01/31 20:23:56;;;;;;;3.13;1.15;;;;;;;18.15;54.34;101918.84;20993084;28;20048;-65
2024/01/31 20:33:58;;;;;;;2.30;1.20;;;;;;;18.10;54.07;101914.63;20985667;28;20127;-64
2024/01/31 20:44:00;;;;;;;1.95;0.82;;;;;;;18.06;53.83;101883.47;20976910;28;20044;-65
2024/01/31 20:54:02;;;;;;;3.28;1.10;;;;;;;18.02;53.52;101875.75;20999754;28;20055;-65
2024/01/31 21:04:07;;;;;;;1.92;1.08;;;;;;;17.98;53.41;101869.69;20987478;27;20047;-65
2024/01/31 21:14:09;;;;;;;;;;;;;;;17.90;53.48;101854.13;20996617;28;20052;-65
2024/01/31 21:24:10;;;;;;;2.42;1.38;;;;;;;17.81;53.18;101839.47;21036942;28;20371;-65
2024/01/31 21:34:12;;;;;;;1.30;0.90;;;;;;;17.75;53.17;101822.91;20996691;28;20055;-65
2024/01/31 21:44:16;;;;;;;2.97;1.20;;;;;;;17.68;53.08;101825.19;20946543;28;20060;-64
2024/01/31 21:54:18;;;;;;;9.95;4.72;;;;;;;17.68;53.55;101835.97;20927855;28;20671;-65
2024/01/31 22:04:20;;;;;;;3.38;2.00;;;;;;;17.58;58.74;101814.22;20907255;28;20162;-65
2024/01/31 22:14:32;;;;;;;3.08;1.40;;;;;;;17.58;58.39;101810.66;20916280;28;20130;-65
2024/01/31 22:24:34;;;;;;;2.60;1.27;;;;;;;17.61;58.24;101800.53;20909351;28;20606;-65
2024/01/31 22:34:38;;;;;;;3.47;1.30;;;;;;;17.58;58.03;101800.78;20929141;28;20056;-65
2024/01/31 22:44:40;;;;;;;3.08;1.50;;;;;;;17.64;58.03;101802.13;21000243;28;20138;-65
2024/01/31 22:54:42;;;;;;;2.63;1.23;;;;;;;17.65;57.73;101790.38;21027174;28;20048;-65
2024/01/31 23:04:54;;;;;;;3.03;1.40;;;;;;;17.64;57.62;101794.94;21034776;27;20055;-65
2024/01/31 23:14:56;;;;;;;3.60;1.30;;;;;;;17.62;57.50;101801.38;21019388;28;20052;-65
2024/01/31 23:24:58;;;;;;;2.45;1.40;;;;;;;17.61;57.35;101813.13;21041469;28;20193;-64
2024/01/31 23:35:00;;;;;;;2.95;1.17;;;;;;;17.57;57.26;101793.66;21017185;28;20105;-65
2024/01/31 23:45:01;;;;;;;1.63;0.90;;;;;;;17.55;57.39;101790.22;21027273;28;20131;-65
2024/01/31 23:55:04;;;;;;;2.53;1.27;;;;;;;17.46;57.68;101789.06;21014189;28;20048;-65
